createdAt,value
2023-08-12T00:01:04.221Z,2.33
2023-08-12T00:03:32.149Z,3.25
2023-08-12T00:06:01.637Z,2.22
2023-08-12T00:08:30.198Z,1.80
2023-08-12T00:10:59.331Z,1.80
2023-08-12T00:13:27.060Z,2.08
2023-08-12T00:15:54.805Z,2.20
2023-08-12T00:18:22.589Z,2.08
2023-08-12T00:20:50.301Z,2.05
2023-08-12T00:23:18.033Z,1.73
2023-08-12T00:25:45.768Z,2.55
2023-08-12T00:28:14.969Z,1.75
2023-08-12T00:30:42.710Z,2.13
2023-08-12T00:33:10.597Z,2.00
2023-08-12T00:35:38.350Z,2.20
2023-08-12T00:38:06.121Z,2.05
2023-08-12T00:40:34.000Z,1.90
2023-08-12T00:43:01.756Z,1.88
2023-08-12T00:45:30.880Z,1.80
2023-08-12T00:47:58.741Z,2.20
2023-08-12T00:50:26.639Z,2.30
2023-08-12T00:52:54.478Z,1.98
2023-08-12T00:55:22.834Z,2.38
2023-08-12T00:57:50.625Z,1.77
2023-08-12T01:00:21.043Z,2.08
2023-08-12T01:02:50.899Z,2.10
2023-08-12T01:05:18.790Z,1.70
2023-08-12T01:07:47.600Z,2.10
2023-08-12T01:10:16.489Z,2.08
2023-08-12T01:12:47.058Z,2.10
2023-08-12T01:15:17.165Z,1.92
2023-08-12T01:17:46.193Z,1.73
2023-08-12T01:20:15.705Z,1.88
2023-08-12T01:22:44.357Z,1.92
2023-08-12T01:25:13.472Z,2.10
2023-08-12T01:27:41.182Z,1.85
2023-08-12T01:30:12.169Z,2.10
2023-08-12T01:32:43.227Z,1.73
2023-08-12T01:35:13.131Z,2.25
2023-08-12T01:37:41.742Z,2.08
2023-08-12T01:40:11.088Z,1.60
2023-08-12T01:42:41.285Z,1.80
2023-08-12T01:45:09.678Z,1.80
2023-08-12T01:47:37.425Z,2.22
2023-08-12T01:50:05.399Z,2.08
2023-08-12T01:52:33.095Z,1.98
2023-08-12T01:55:00.763Z,1.90
2023-08-12T01:57:28.523Z,2.00
2023-08-12T01:59:57.668Z,1.90
2023-08-12T02:02:25.400Z,1.95
2023-08-12T02:04:53.151Z,1.60
2023-08-12T02:07:20.848Z,2.72
2023-08-12T02:09:48.518Z,1.73
2023-08-12T02:12:16.224Z,2.40
2023-08-12T02:14:43.974Z,1.77
2023-08-12T02:17:13.305Z,1.75
2023-08-12T02:19:41.163Z,1.98
2023-08-12T02:22:08.868Z,2.03
2023-08-12T02:24:36.643Z,1.88
2023-08-12T02:27:04.792Z,1.60
2023-08-12T02:29:32.518Z,2.35
2023-08-12T02:32:00.346Z,2.00
2023-08-12T02:34:29.431Z,2.03
2023-08-12T02:36:57.098Z,1.95
2023-08-12T02:39:24.798Z,2.20
2023-08-12T02:41:52.500Z,2.03
2023-08-12T02:44:20.174Z,2.17
2023-08-12T02:46:47.903Z,1.98
2023-08-12T02:49:15.616Z,1.95
2023-08-12T02:51:44.796Z,1.67
2023-08-12T02:54:12.489Z,1.90
2023-08-12T02:56:40.213Z,2.00
2023-08-12T02:59:08.116Z,1.73
2023-08-12T03:01:35.948Z,1.77
2023-08-12T03:04:04.013Z,1.75
2023-08-12T03:06:31.734Z,1.90
2023-08-12T03:09:01.268Z,2.20
2023-08-12T03:11:29.067Z,1.73
2023-08-12T03:13:56.774Z,1.70
2023-08-12T03:16:24.447Z,2.08
2023-08-12T03:18:52.168Z,1.77
2023-08-12T03:21:19.876Z,2.10
2023-08-12T03:23:47.591Z,1.97
2023-08-12T03:26:17.083Z,2.10
2023-08-12T03:28:44.841Z,1.85
2023-08-12T03:31:12.572Z,1.75
2023-08-12T03:33:40.303Z,1.95
2023-08-12T03:36:08.094Z,2.08
2023-08-12T03:38:37.257Z,1.83
2023-08-12T03:41:05.060Z,1.70
2023-08-12T03:43:34.882Z,1.60
2023-08-12T03:46:02.636Z,1.77
2023-08-12T03:48:30.466Z,2.00
2023-08-12T03:50:58.183Z,1.80
2023-08-12T03:53:25.892Z,1.70
2023-08-12T03:55:53.602Z,1.93
2023-08-12T03:58:21.634Z,1.80
2023-08-12T04:00:50.768Z,1.60
2023-08-12T04:03:18.586Z,1.70
2023-08-12T04:05:50.218Z,1.70
2023-08-12T04:08:17.942Z,1.80
2023-08-12T04:10:46.800Z,1.73
2023-08-12T04:13:14.525Z,1.90
2023-08-12T04:15:42.282Z,1.70
2023-08-12T04:18:11.369Z,1.80
2023-08-12T04:20:39.512Z,1.97
2023-08-12T04:23:07.260Z,2.20
2023-08-12T04:25:34.985Z,1.77
2023-08-12T04:28:02.778Z,1.90
2023-08-12T04:30:30.475Z,1.70
2023-08-12T04:32:58.261Z,2.00
2023-08-12T04:35:27.425Z,1.80
2023-08-12T04:37:55.106Z,2.00
2023-08-12T04:40:23.799Z,2.10
2023-08-12T04:42:51.506Z,2.27
2023-08-12T04:45:19.318Z,3.97
2023-08-12T04:47:48.010Z,3.83
2023-08-12T04:50:16.509Z,4.13
2023-08-12T04:52:46.333Z,3.63
2023-08-12T04:55:14.901Z,3.50
2023-08-12T04:57:43.254Z,3.20
2023-08-12T05:00:11.422Z,3.10
2023-08-12T05:02:39.206Z,2.43
2023-08-12T05:05:07.830Z,2.47
2023-08-12T05:07:37.021Z,1.70
2023-08-12T05:10:08.215Z,2.50
2023-08-12T05:12:36.310Z,1.80
2023-08-12T05:15:04.066Z,2.07
2023-08-12T05:17:31.798Z,1.70
2023-08-12T05:19:59.533Z,2.00
2023-08-12T05:22:27.222Z,2.57
2023-08-12T05:24:54.875Z,2.10
2023-08-12T05:27:23.984Z,2.07
2023-08-12T05:29:51.740Z,2.00
2023-08-12T05:32:19.412Z,2.20
2023-08-12T05:34:47.106Z,1.87
2023-08-12T05:37:14.851Z,1.33
2023-08-12T05:39:42.522Z,1.97
2023-08-12T05:42:10.577Z,1.70
2023-08-12T05:44:39.987Z,1.83
2023-08-12T05:47:08.181Z,1.70
2023-08-12T05:49:36.407Z,1.80
2023-08-12T05:52:04.424Z,2.10
2023-08-12T05:54:32.217Z,1.97
2023-08-12T05:57:00.019Z,1.83
2023-08-12T05:59:28.323Z,1.70
2023-08-12T06:01:57.512Z,1.83
2023-08-12T06:04:25.955Z,1.70
2023-08-12T06:06:53.747Z,2.30
2023-08-12T06:09:21.498Z,2.03
2023-08-12T06:11:49.211Z,1.83
2023-08-12T06:14:16.973Z,1.65
2023-08-12T06:16:44.651Z,2.00
2023-08-12T06:19:13.716Z,1.85
2023-08-12T06:21:41.455Z,1.77
2023-08-12T06:24:09.292Z,1.80
2023-08-12T06:26:37.282Z,2.30
2023-08-12T06:29:06.081Z,2.00
2023-08-12T06:31:34.132Z,2.03
2023-08-12T06:34:02.595Z,1.83
2023-08-12T06:36:31.738Z,1.88
2023-08-12T06:38:59.559Z,1.80
2023-08-12T06:41:27.285Z,2.28
2023-08-12T06:43:55.043Z,1.65
2023-08-12T06:46:22.763Z,1.77
2023-08-12T06:48:50.508Z,2.10
2023-08-12T06:51:18.210Z,2.00
2023-08-12T06:53:47.273Z,2.05
2023-08-12T06:56:15.028Z,1.65
2023-08-12T06:58:43.065Z,2.22
2023-08-12T07:01:12.870Z,2.17
2023-08-12T07:03:42.747Z,2.03
2023-08-12T07:06:10.640Z,2.53
2023-08-12T07:08:38.333Z,2.10
2023-08-12T07:11:07.400Z,1.92
2023-08-12T07:13:35.509Z,1.90
2023-08-12T07:16:03.382Z,2.00
2023-08-12T07:18:31.218Z,1.90
2023-08-12T07:20:59.443Z,2.03
2023-08-12T07:23:27.730Z,2.00
2023-08-12T07:25:55.810Z,2.13
2023-08-12T07:28:25.047Z,2.00
2023-08-12T07:30:53.596Z,2.10
2023-08-12T07:33:21.863Z,2.28
2023-08-12T07:35:49.870Z,2.50
2023-08-12T07:38:17.593Z,2.47
2023-08-12T07:40:45.480Z,2.13
2023-08-12T07:43:13.242Z,2.25
2023-08-12T07:45:42.473Z,2.38
2023-08-12T07:48:10.274Z,2.50
2023-08-12T07:50:38.002Z,2.58
2023-08-12T07:53:05.954Z,2.35
2023-08-12T07:55:33.640Z,2.25
2023-08-12T07:58:01.371Z,2.13
2023-08-12T08:00:29.247Z,2.30
2023-08-12T08:02:58.742Z,2.05
2023-08-12T08:05:26.482Z,2.20
2023-08-12T08:07:54.273Z,2.20
2023-08-12T08:10:21.998Z,1.98
2023-08-12T08:12:49.710Z,2.20
2023-08-12T08:15:17.637Z,1.95
2023-08-12T08:17:45.384Z,2.63
2023-08-12T08:20:14.666Z,2.00
2023-08-12T08:22:42.388Z,2.25
2023-08-12T08:25:10.309Z,1.90
2023-08-12T08:27:38.014Z,2.35
2023-08-12T08:30:06.061Z,2.30
2023-08-12T08:32:33.996Z,2.80
2023-08-12T08:35:01.816Z,2.22
2023-08-12T08:37:30.959Z,2.33
2023-08-12T08:39:58.732Z,2.40
2023-08-12T08:42:27.053Z,2.47
2023-08-12T08:44:55.400Z,2.45
2023-08-12T08:47:27.113Z,2.30
2023-08-12T08:49:55.590Z,3.47
2023-08-12T08:52:23.958Z,2.50
2023-08-12T08:54:53.388Z,2.67
2023-08-12T08:57:24.018Z,2.47
2023-08-12T09:00:16.386Z,2.00
2023-08-12T09:02:45.544Z,2.20
2023-08-12T09:05:13.629Z,2.47
2023-08-12T09:07:41.675Z,2.28
2023-08-12T09:10:13.814Z,2.22
2023-08-12T09:12:43.146Z,2.38
2023-08-12T09:15:11.449Z,2.05
2023-08-12T09:17:39.883Z,2.38
2023-08-12T09:20:12.474Z,2.78
2023-08-12T09:22:40.189Z,2.67
2023-08-12T09:25:09.464Z,2.70
2023-08-12T09:27:39.476Z,2.58
2023-08-12T09:30:08.767Z,2.78
2023-08-12T09:32:36.794Z,2.80
2023-08-12T09:35:06.777Z,2.80
2023-08-12T09:37:34.528Z,3.45
2023-08-12T09:40:06.196Z,2.88
2023-08-12T09:42:35.236Z,2.35
2023-08-12T09:45:04.595Z,2.75
2023-08-12T09:47:32.397Z,2.58
2023-08-12T09:50:00.864Z,2.30
2023-08-12T09:52:29.523Z,2.42
2023-08-12T09:54:58.861Z,2.40
2023-08-12T09:57:27.927Z,2.78
2023-08-12T09:59:55.920Z,2.30
2023-08-12T10:02:25.325Z,2.55
2023-08-12T10:04:57.048Z,2.38
2023-08-12T10:07:25.632Z,2.70
2023-08-12T10:09:53.467Z,3.00
2023-08-12T10:12:21.807Z,2.53
2023-08-12T10:14:49.994Z,2.28
2023-08-12T10:17:26.632Z,2.58
2023-08-12T10:20:09.126Z,3.25
2023-08-12T10:22:37.265Z,2.50
2023-08-12T10:25:05.898Z,2.90
2023-08-12T10:27:33.981Z,2.47
2023-08-12T10:30:04.683Z,2.50
2023-08-12T10:32:33.589Z,2.80
2023-08-12T10:35:01.300Z,2.20
2023-08-12T10:37:33.892Z,2.53
2023-08-12T10:40:01.722Z,2.88
2023-08-12T10:42:45.082Z,2.55
2023-08-12T10:45:13.445Z,2.70
2023-08-12T10:47:42.047Z,2.88
2023-08-12T10:50:18.786Z,2.65
2023-08-12T10:52:48.202Z,2.72
2023-08-12T10:55:19.509Z,2.70
2023-08-12T10:57:47.610Z,2.92
2023-08-12T11:00:16.156Z,3.75
2023-08-12T11:02:46.621Z,3.00
2023-08-12T11:05:15.029Z,3.70
2023-08-12T11:07:44.180Z,4.13
2023-08-12T11:10:14.497Z,4.00
2023-08-12T11:12:43.443Z,4.32
2023-08-12T11:15:12.115Z,2.97
2023-08-12T11:17:41.069Z,3.97
2023-08-12T11:20:10.786Z,2.33
2023-08-12T11:22:39.687Z,2.75
2023-08-12T11:25:09.748Z,2.72
2023-08-12T11:27:40.304Z,2.33
2023-08-12T11:30:08.536Z,3.22
2023-08-12T11:32:36.961Z,2.92
2023-08-12T11:35:05.333Z,2.65
2023-08-12T11:37:33.077Z,2.88
2023-08-12T11:40:00.820Z,2.40
2023-08-12T11:42:28.556Z,2.88
2023-08-12T11:44:57.864Z,2.72
2023-08-12T11:47:25.686Z,3.20
2023-08-12T11:49:54.307Z,2.45
2023-08-12T11:52:22.474Z,2.70
2023-08-12T11:54:50.849Z,2.72
2023-08-12T11:57:19.306Z,2.63
2023-08-12T11:59:47.154Z,2.70
2023-08-12T12:02:17.276Z,2.92
2023-08-12T12:04:47.806Z,3.45
2023-08-12T12:07:22.586Z,2.88
2023-08-12T12:09:52.852Z,2.88
2023-08-12T12:12:20.765Z,2.63
2023-08-12T12:14:49.191Z,3.42
2023-08-12T12:17:18.503Z,3.13
2023-08-12T12:19:46.290Z,2.92
2023-08-12T12:22:15.030Z,3.20
2023-08-12T12:24:46.253Z,3.60
2023-08-12T12:27:14.343Z,3.05
2023-08-12T12:29:42.559Z,3.28
2023-08-12T12:32:11.494Z,3.13
2023-08-12T12:34:41.357Z,3.00
2023-08-12T12:37:09.120Z,3.70
2023-08-12T12:39:36.800Z,3.13
2023-08-12T12:42:04.970Z,3.10
2023-08-12T12:44:33.151Z,2.95
2023-08-12T12:47:03.772Z,3.17
2023-08-12T12:49:31.673Z,3.10
2023-08-12T12:52:01.128Z,3.03
2023-08-12T12:54:28.947Z,3.13
2023-08-12T12:56:56.688Z,3.17
2023-08-12T12:59:24.596Z,3.05
2023-08-12T13:01:52.455Z,2.92
2023-08-12T13:04:24.430Z,3.22
2023-08-12T13:06:52.410Z,3.47
2023-08-12T13:09:21.852Z,3.60
2023-08-12T13:11:49.798Z,2.97
2023-08-12T13:14:20.109Z,3.50
2023-08-12T13:16:48.174Z,2.88
2023-08-12T13:19:16.159Z,3.00
2023-08-12T13:21:44.154Z,2.78
2023-08-12T13:24:12.094Z,3.20
2023-08-12T13:26:41.427Z,3.65
2023-08-12T13:29:09.933Z,3.30
2023-08-12T13:31:38.024Z,3.08
2023-08-12T13:34:06.020Z,3.35
2023-08-12T13:36:36.004Z,3.17
2023-08-12T13:39:04.414Z,3.60
2023-08-12T13:41:32.395Z,3.10
2023-08-12T13:44:01.791Z,3.17
2023-08-12T13:46:29.743Z,2.78
2023-08-12T13:48:59.960Z,2.83
2023-08-12T13:51:28.060Z,3.08
2023-08-12T13:53:56.128Z,3.08
2023-08-12T13:56:24.407Z,2.88
2023-08-12T13:58:52.451Z,3.15
2023-08-12T14:01:24.139Z,3.13
2023-08-12T14:03:52.694Z,3.28
2023-08-12T14:06:20.760Z,2.90
2023-08-12T14:08:49.074Z,3.25
2023-08-12T14:11:18.440Z,3.08
2023-08-12T14:13:46.721Z,3.10
2023-08-12T14:16:15.236Z,3.10
2023-08-12T14:18:44.898Z,3.45
2023-08-12T14:21:13.048Z,3.20
2023-08-12T14:23:41.651Z,2.90
2023-08-12T14:26:10.877Z,3.00
2023-08-12T14:28:39.242Z,2.80
2023-08-12T14:31:07.256Z,2.83
2023-08-12T14:33:35.349Z,2.88
2023-08-12T14:36:05.688Z,3.25
2023-08-12T14:38:34.280Z,3.30
2023-08-12T14:41:02.778Z,3.53
2023-08-12T14:43:30.977Z,2.70
2023-08-12T14:45:59.028Z,2.92
2023-08-12T14:48:29.536Z,3.20
2023-08-12T14:50:58.961Z,3.00
2023-08-12T14:53:30.885Z,3.00
2023-08-12T14:55:58.643Z,3.40
2023-08-12T14:58:26.503Z,3.20
2023-08-12T15:00:54.272Z,3.20
2023-08-12T15:03:22.118Z,2.80
2023-08-12T15:05:50.016Z,2.63
2023-08-12T15:08:17.764Z,3.10
2023-08-12T15:10:46.994Z,2.50
2023-08-12T15:13:14.910Z,2.80
2023-08-12T15:15:42.601Z,2.67
2023-08-12T15:18:10.380Z,2.72
2023-08-12T15:20:38.864Z,3.17
2023-08-12T15:23:06.588Z,3.40
2023-08-12T15:25:34.505Z,3.38
2023-08-12T15:28:03.965Z,3.63
2023-08-12T15:30:32.029Z,3.25
2023-08-12T15:32:59.881Z,3.22
2023-08-12T15:35:27.673Z,3.33
2023-08-12T15:37:55.578Z,3.22
2023-08-12T15:40:23.804Z,2.50
2023-08-12T15:42:51.738Z,3.45
2023-08-12T15:45:21.032Z,3.60
2023-08-12T15:47:48.755Z,3.38
2023-08-12T15:50:16.636Z,3.47
2023-08-12T15:52:44.351Z,3.03
2023-08-12T15:55:12.791Z,3.40
2023-08-12T15:57:40.595Z,3.35
2023-08-12T16:00:09.529Z,3.28
2023-08-12T16:02:38.850Z,3.50
2023-08-12T16:05:07.439Z,3.15
2023-08-12T16:07:35.373Z,2.95
2023-08-12T16:10:03.291Z,2.88
2023-08-12T16:12:31.052Z,3.20
2023-08-12T16:14:58.741Z,3.15
2023-08-12T16:17:26.485Z,3.30
2023-08-12T16:19:55.666Z,3.25
2023-08-12T16:22:23.350Z,2.83
2023-08-12T16:24:51.013Z,2.67
2023-08-12T16:27:18.736Z,3.03
2023-08-12T16:29:46.431Z,3.17
2023-08-12T16:32:14.497Z,2.92
2023-08-12T16:34:42.463Z,2.80
2023-08-12T16:37:20.934Z,2.80
2023-08-12T16:39:49.849Z,2.83
2023-08-12T16:42:18.607Z,2.95
2023-08-12T16:44:47.316Z,2.70
2023-08-12T16:47:15.250Z,2.30
2023-08-12T16:49:42.993Z,2.70
2023-08-12T16:52:12.303Z,2.63
2023-08-12T16:54:40.375Z,2.63
2023-08-12T16:57:08.907Z,2.65
2023-08-12T16:59:36.717Z,3.20
2023-08-12T17:02:04.495Z,2.92
2023-08-12T17:04:32.242Z,2.80
2023-08-12T17:07:00.001Z,2.90
2023-08-12T17:09:31.685Z,2.90
2023-08-12T17:12:01.180Z,2.63
2023-08-12T17:14:30.133Z,2.88
2023-08-12T17:16:58.246Z,3.72
2023-08-12T17:19:26.364Z,2.47
2023-08-12T17:21:54.092Z,3.13
2023-08-12T17:24:21.850Z,2.75
2023-08-12T17:26:50.949Z,3.03
2023-08-12T17:29:18.662Z,2.85
2023-08-12T17:31:46.375Z,2.55
2023-08-12T17:34:14.134Z,3.10
2023-08-12T17:36:42.409Z,2.95
2023-08-12T17:39:10.167Z,3.03
2023-08-12T17:41:38.077Z,3.40
2023-08-12T17:44:07.653Z,3.58
2023-08-12T17:46:35.611Z,3.22
2023-08-12T17:49:03.583Z,3.30
2023-08-12T17:51:31.337Z,3.38
2023-08-12T17:53:59.117Z,3.25
2023-08-12T17:56:26.944Z,3.33
2023-08-12T17:58:54.718Z,3.10
2023-08-12T18:01:23.803Z,3.40
2023-08-12T18:03:51.649Z,3.22
2023-08-12T18:06:19.439Z,2.97
2023-08-12T18:08:47.675Z,3.67
2023-08-12T18:11:15.657Z,2.58
2023-08-12T18:13:43.321Z,2.97
2023-08-12T18:16:11.078Z,2.70
2023-08-12T18:18:40.483Z,2.65
2023-08-12T18:21:08.253Z,2.78
2023-08-12T18:23:35.988Z,3.72
2023-08-12T18:26:04.023Z,3.03
2023-08-12T18:28:31.779Z,2.55
2023-08-12T18:30:59.522Z,2.85
2023-08-12T18:33:27.258Z,2.70
2023-08-12T18:35:56.491Z,2.85
2023-08-12T18:38:24.221Z,3.28
2023-08-12T18:40:52.039Z,2.67
2023-08-12T18:43:19.763Z,2.45
2023-08-12T18:45:47.512Z,3.10
2023-08-12T18:48:15.289Z,2.88
2023-08-12T18:50:43.157Z,2.83
2023-08-12T18:53:12.279Z,3.03
2023-08-12T18:55:39.981Z,3.08
2023-08-12T18:58:07.762Z,3.67
2023-08-12T19:00:35.465Z,3.00
2023-08-12T19:03:03.281Z,2.60
2023-08-12T19:05:31.112Z,2.60
2023-08-12T19:07:58.907Z,2.63
2023-08-12T19:10:28.015Z,3.13
2023-08-12T19:12:55.776Z,2.58
2023-08-12T19:15:23.549Z,2.50
2023-08-12T19:17:51.709Z,2.60
2023-08-12T19:20:19.495Z,2.28
2023-08-12T19:22:47.283Z,3.08
2023-08-12T19:25:15.033Z,2.92
2023-08-12T19:27:44.212Z,2.80
2023-08-12T19:30:12.661Z,2.90
2023-08-12T19:32:48.383Z,2.50
2023-08-12T19:35:16.117Z,2.78
2023-08-12T19:37:44.632Z,3.00
2023-08-12T19:40:12.831Z,2.65
2023-08-12T19:42:40.581Z,2.85
2023-08-12T19:45:10.156Z,2.92
2023-08-12T19:47:38.612Z,2.50
2023-08-12T19:50:06.772Z,2.55
2023-08-12T19:52:34.438Z,3.20
2023-08-12T19:55:02.188Z,2.83
2023-08-12T19:57:29.965Z,3.22
2023-08-12T19:59:57.649Z,3.50
2023-08-12T20:02:37.751Z,3.28
2023-08-12T20:05:12.244Z,2.78
2023-08-12T20:07:40.010Z,2.78
2023-08-12T20:10:08.378Z,2.55
2023-08-12T20:12:36.463Z,2.40
2023-08-12T20:15:04.363Z,3.05
2023-08-12T20:17:33.569Z,2.97
2023-08-12T20:20:02.024Z,2.90
2023-08-12T20:22:30.297Z,2.53
2023-08-12T20:24:58.089Z,2.30
2023-08-12T20:27:25.818Z,2.85
2023-08-12T20:29:53.622Z,2.95
2023-08-12T20:32:21.360Z,3.30
2023-08-12T20:34:50.465Z,3.83
2023-08-12T20:37:18.141Z,3.05
2023-08-12T20:39:45.898Z,3.08
2023-08-12T20:42:13.691Z,3.28
2023-08-12T20:44:41.428Z,2.78
2023-08-12T20:47:09.298Z,2.78
2023-08-12T20:49:36.988Z,2.28
2023-08-12T20:52:06.735Z,2.35
2023-08-12T20:54:34.462Z,1.83
2023-08-12T20:57:02.936Z,1.77
2023-08-12T20:59:30.672Z,1.98
2023-08-12T21:01:58.482Z,2.22
2023-08-12T21:04:26.260Z,1.85
2023-08-12T21:06:59.288Z,1.90
2023-08-12T21:09:28.560Z,1.80
2023-08-12T21:11:56.331Z,2.30
2023-08-12T21:14:24.250Z,1.90
2023-08-12T21:16:52.025Z,2.05
2023-08-12T21:19:19.712Z,2.28
2023-08-12T21:21:47.419Z,1.60
2023-08-12T21:24:15.168Z,1.80
2023-08-12T21:26:44.283Z,1.90
2023-08-12T21:29:11.966Z,1.60
2023-08-12T21:31:39.683Z,1.75
2023-08-12T21:34:07.469Z,1.67
2023-08-12T21:36:35.322Z,1.55
2023-08-12T21:39:06.067Z,1.85
2023-08-12T21:41:34.614Z,1.60
2023-08-12T21:44:04.443Z,2.00
2023-08-12T21:46:32.194Z,2.70
2023-08-12T21:49:00.513Z,1.48
2023-08-12T21:51:28.280Z,2.15
2023-08-12T21:53:56.346Z,1.73
2023-08-12T21:56:25.465Z,1.70
2023-08-12T21:58:53.451Z,1.50
2023-08-12T22:01:22.967Z,1.50
2023-08-12T22:03:52.934Z,1.88
2023-08-12T22:06:23.673Z,1.58
2023-08-12T22:08:51.621Z,1.40
2023-08-12T22:11:19.378Z,1.70
2023-08-12T22:13:47.335Z,1.88
2023-08-12T22:16:15.101Z,1.70
2023-08-12T22:18:44.237Z,2.00
2023-08-12T22:21:12.030Z,1.60
2023-08-12T22:23:39.872Z,1.58
2023-08-12T22:26:07.582Z,1.88
2023-08-12T22:28:35.342Z,1.80
2023-08-12T22:31:03.604Z,1.75
2023-08-12T22:33:31.358Z,2.10
2023-08-12T22:36:00.488Z,1.70
2023-08-12T22:38:28.206Z,1.67
2023-08-12T22:40:56.320Z,1.77
2023-08-12T22:43:24.091Z,1.65
2023-08-12T22:45:52.201Z,1.63
2023-08-12T22:48:20.348Z,1.80
2023-08-12T22:50:48.189Z,1.45
2023-08-12T22:53:17.309Z,1.42
2023-08-12T22:55:45.364Z,1.92
2023-08-12T22:58:13.065Z,1.60
2023-08-12T23:00:41.019Z,1.80
2023-08-12T23:03:08.869Z,1.52
2023-08-12T23:05:36.666Z,2.03
2023-08-12T23:08:04.490Z,1.40
2023-08-12T23:10:33.694Z,1.70
2023-08-12T23:13:01.923Z,1.67
2023-08-12T23:15:29.666Z,1.75
2023-08-12T23:17:58.251Z,1.85
2023-08-12T23:20:26.006Z,2.00
2023-08-12T23:22:53.830Z,1.88
2023-08-12T23:25:21.572Z,1.38
2023-08-12T23:27:50.733Z,1.50
2023-08-12T23:30:18.407Z,1.73
2023-08-12T23:32:46.236Z,1.90
2023-08-12T23:35:14.583Z,1.77
2023-08-12T23:37:42.417Z,1.60
2023-08-12T23:40:12.988Z,1.80
2023-08-12T23:42:41.131Z,1.70
2023-08-12T23:45:11.062Z,1.83
2023-08-12T23:47:40.640Z,2.20
2023-08-12T23:50:09.050Z,1.63
2023-08-12T23:52:36.784Z,1.70
2023-08-12T23:55:04.729Z,2.50
2023-08-12T23:57:32.496Z,1.60
